createdAt,value
2024-02-19T00:00:19.610Z,5.26
2024-02-19T00:02:48.857Z,5.25
2024-02-19T00:05:21.460Z,5.35
2024-02-19T00:07:51.214Z,5.26
2024-02-19T00:10:23.271Z,5.39
2024-02-19T00:12:53.008Z,5.13
2024-02-19T00:15:22.172Z,5.35
2024-02-19T00:17:51.613Z,5.27
2024-02-19T00:20:24.895Z,5.02
2024-02-19T00:22:55.055Z,5.02
2024-02-19T00:25:25.925Z,5.27
2024-02-19T00:27:55.152Z,5.12
2024-02-19T00:30:24.513Z,5.03
2024-02-19T00:32:54.775Z,5.13
2024-02-19T00:35:28.565Z,4.85
2024-02-19T00:37:57.320Z,4.88
2024-02-19T00:40:26.697Z,5.02
2024-02-19T00:42:55.750Z,4.99
2024-02-19T00:45:28.103Z,5.03
2024-02-19T00:47:58.167Z,5.06
2024-02-19T00:50:27.563Z,5.01
2024-02-19T00:52:56.616Z,5.32
2024-02-19T00:55:28.035Z,5.15
2024-02-19T00:57:56.830Z,5.13
2024-02-19T01:00:27.645Z,5.14
2024-02-19T01:02:56.910Z,5.00
2024-02-19T01:05:29.741Z,5.13
2024-02-19T01:07:58.524Z,4.93
2024-02-19T01:10:27.637Z,5.08
2024-02-19T01:12:56.706Z,5.00
2024-02-19T01:15:28.393Z,5.07
2024-02-19T01:17:57.975Z,5.09
2024-02-19T01:20:26.792Z,5.04
2024-02-19T01:22:57.038Z,4.98
2024-02-19T01:25:32.732Z,4.87
2024-02-19T01:28:01.791Z,5.13
2024-02-19T01:30:32.698Z,5.05
2024-02-19T01:33:03.052Z,4.98
2024-02-19T01:35:34.144Z,5.02
2024-02-19T01:38:05.352Z,4.99
2024-02-19T01:40:34.561Z,5.08
2024-02-19T01:43:04.246Z,4.91
2024-02-19T01:45:33.859Z,5.29
2024-02-19T01:48:05.002Z,4.98
2024-02-19T01:50:38.312Z,4.86
2024-02-19T01:53:13.472Z,4.94
2024-02-19T01:55:43.806Z,5.21
2024-02-19T01:58:13.526Z,4.90
2024-02-19T02:00:44.068Z,5.09
2024-02-19T02:03:18.991Z,5.25
2024-02-19T02:05:49.234Z,5.02
2024-02-19T02:08:21.021Z,4.82
2024-02-19T02:10:56.163Z,4.41
2024-02-19T02:13:25.835Z,4.53
2024-02-19T02:15:54.949Z,4.41
2024-02-19T02:18:24.051Z,4.72
2024-02-19T02:20:53.166Z,4.93
2024-02-19T02:23:25.894Z,4.85
2024-02-19T02:25:55.233Z,4.80
2024-02-19T02:28:25.539Z,4.89
2024-02-19T02:30:55.056Z,4.85
2024-02-19T02:33:24.990Z,4.59
2024-02-19T02:35:54.245Z,4.76
2024-02-19T02:38:23.177Z,4.84
2024-02-19T02:40:54.749Z,4.72
2024-02-19T02:43:25.111Z,4.66
2024-02-19T02:45:54.525Z,4.69
2024-02-19T02:48:24.235Z,5.01
2024-02-19T02:50:53.094Z,4.77
2024-02-19T02:53:23.358Z,4.81
2024-02-19T02:55:52.243Z,4.84
2024-02-19T02:58:21.541Z,4.68
2024-02-19T03:00:53.714Z,4.85
2024-02-19T03:03:22.926Z,4.83
2024-02-19T03:05:52.225Z,4.91
2024-02-19T03:08:21.129Z,4.76
2024-02-19T03:10:52.005Z,4.82
2024-02-19T03:13:22.030Z,4.79
2024-02-19T03:15:51.152Z,4.85
2024-02-19T03:18:22.145Z,4.86
2024-02-19T03:20:53.145Z,4.85
2024-02-19T03:23:28.872Z,4.68
2024-02-19T03:25:58.030Z,4.54
2024-02-19T03:28:27.350Z,4.64
2024-02-19T03:30:56.376Z,4.61
2024-02-19T03:33:30.900Z,4.85
2024-02-19T03:36:00.825Z,4.66
2024-02-19T03:38:30.265Z,4.72
2024-02-19T03:40:59.263Z,4.78
2024-02-19T03:43:34.379Z,4.80
2024-02-19T03:46:05.507Z,4.53
2024-02-19T03:48:36.490Z,4.59
2024-02-19T03:51:05.930Z,4.55
2024-02-19T03:53:40.930Z,4.58
2024-02-19T03:56:10.322Z,4.54
2024-02-19T03:58:39.436Z,4.67
2024-02-19T04:01:09.108Z,4.76
2024-02-19T04:03:40.413Z,4.58
2024-02-19T04:06:09.463Z,4.72
2024-02-19T04:08:39.883Z,4.77
2024-02-19T04:11:08.781Z,4.26
2024-02-19T04:13:38.538Z,4.23
2024-02-19T04:16:10.322Z,4.32
2024-02-19T04:18:40.990Z,4.31
2024-02-19T04:21:10.397Z,4.24
2024-02-19T04:23:39.438Z,4.36
2024-02-19T04:26:08.229Z,4.33
2024-02-19T04:28:37.264Z,4.25
2024-02-19T04:31:10.237Z,4.47
2024-02-19T04:33:40.839Z,4.29
2024-02-19T04:36:09.743Z,4.46
2024-02-19T04:38:38.917Z,4.29
2024-02-19T04:41:08.885Z,4.40
2024-02-19T04:43:38.099Z,4.48
2024-02-19T04:46:07.388Z,4.46
2024-02-19T04:48:37.592Z,4.42
2024-02-19T04:51:08.342Z,4.35
2024-02-19T04:53:38.250Z,4.42
2024-02-19T04:56:08.404Z,4.55
2024-02-19T04:58:37.947Z,4.73
2024-02-19T05:01:07.321Z,4.73
2024-02-19T05:03:41.895Z,4.56
2024-02-19T05:06:12.827Z,4.43
2024-02-19T05:08:41.688Z,4.65
2024-02-19T05:11:10.783Z,4.75
2024-02-19T05:13:44.730Z,4.84
2024-02-19T05:16:17.563Z,4.73
2024-02-19T05:18:47.460Z,4.70
2024-02-19T05:21:19.388Z,4.53
2024-02-19T05:23:48.679Z,4.44
2024-02-19T05:26:27.209Z,4.58
2024-02-19T05:28:56.388Z,4.74
2024-02-19T05:31:35.353Z,4.91
2024-02-19T05:34:06.185Z,4.69
2024-02-19T05:36:37.092Z,4.87
2024-02-19T05:39:11.743Z,5.00
2024-02-19T05:41:41.264Z,4.93
2024-02-19T05:44:12.511Z,5.06
2024-02-19T05:46:41.209Z,5.13
2024-02-19T05:49:11.570Z,5.04
2024-02-19T05:51:42.706Z,4.83
2024-02-19T05:54:12.281Z,5.13
2024-02-19T05:56:44.579Z,5.03
2024-02-19T05:59:15.251Z,5.04
2024-02-19T06:01:44.494Z,5.03
2024-02-19T06:04:14.182Z,5.14
2024-02-19T06:06:45.251Z,5.23
2024-02-19T06:09:14.440Z,5.27
2024-02-19T06:11:45.657Z,5.17
2024-02-19T06:14:18.122Z,5.57
2024-02-19T06:16:47.250Z,5.54
2024-02-19T06:19:18.444Z,5.54
2024-02-19T06:21:48.828Z,5.77
2024-02-19T06:24:17.963Z,5.86
2024-02-19T06:26:46.881Z,5.80
2024-02-19T06:29:15.852Z,5.68
2024-02-19T06:31:47.301Z,5.61
2024-02-19T06:34:16.688Z,5.70
2024-02-19T06:36:46.454Z,5.79
2024-02-19T06:39:16.757Z,6.08
2024-02-19T06:41:46.310Z,6.08
2024-02-19T06:44:15.394Z,6.27
2024-02-19T06:46:44.489Z,6.30
2024-02-19T06:49:17.595Z,6.31
2024-02-19T06:51:47.032Z,6.27
2024-02-19T06:54:17.694Z,6.28
2024-02-19T06:56:47.167Z,6.43
2024-02-19T06:59:17.510Z,6.40
2024-02-19T07:01:47.010Z,6.28
2024-02-19T07:04:16.201Z,6.44
2024-02-19T07:06:46.150Z,6.63
2024-02-19T07:09:16.078Z,6.51
2024-02-19T07:11:46.316Z,6.74
2024-02-19T07:14:16.121Z,6.81
2024-02-19T07:16:45.343Z,6.88
2024-02-19T07:19:15.270Z,6.74
2024-02-19T07:21:45.846Z,6.61
2024-02-19T07:24:14.990Z,6.85
2024-02-19T07:26:44.138Z,6.76
2024-02-19T07:31:44.639Z,7.25
2024-02-19T07:34:13.723Z,7.13
2024-02-19T07:36:46.079Z,6.91
2024-02-19T07:39:15.876Z,7.04
2024-02-19T07:41:44.762Z,6.95
2024-02-19T07:44:15.088Z,6.84
2024-02-19T07:46:44.823Z,6.91
2024-02-19T07:49:14.149Z,7.10
2024-02-19T07:51:43.318Z,7.17
2024-02-19T07:54:13.063Z,7.30
2024-02-19T07:56:41.765Z,7.38
2024-02-19T07:59:10.603Z,7.56
2024-02-19T08:01:41.173Z,7.75
2024-02-19T08:04:10.406Z,7.82
2024-02-19T08:06:39.880Z,7.85
2024-02-19T08:09:09.097Z,7.74
2024-02-19T08:11:38.724Z,7.66
2024-02-19T08:14:07.968Z,7.82
2024-02-19T08:16:37.686Z,7.97
2024-02-19T08:19:08.121Z,7.91
2024-02-19T08:21:37.052Z,8.23
2024-02-19T08:24:06.799Z,8.26
2024-02-19T08:26:36.252Z,8.05
2024-02-19T08:29:05.468Z,8.07
2024-02-19T08:31:34.976Z,7.99
2024-02-19T08:34:04.532Z,8.03
2024-02-19T08:36:35.744Z,8.35
2024-02-19T08:39:07.982Z,8.30
2024-02-19T08:41:37.099Z,8.33
2024-02-19T08:44:06.669Z,8.37
2024-02-19T08:46:35.693Z,8.37
2024-02-19T08:49:04.948Z,8.52
2024-02-19T08:51:36.077Z,8.58
2024-02-19T08:54:06.013Z,8.32
2024-02-19T08:56:35.561Z,8.44
2024-02-19T08:59:05.476Z,8.63
2024-02-19T09:01:34.631Z,8.52
2024-02-19T09:04:06.683Z,8.38
2024-02-19T09:06:37.993Z,8.38
2024-02-19T09:09:08.444Z,8.43
2024-02-19T09:11:40.415Z,8.62
2024-02-19T09:14:09.920Z,8.62
2024-02-19T09:16:38.694Z,8.48
2024-02-19T09:19:10.647Z,8.69
2024-02-19T09:21:44.808Z,8.88
2024-02-19T09:24:14.221Z,8.71
2024-02-19T09:26:44.467Z,8.77
2024-02-19T09:29:14.137Z,8.53
2024-02-19T09:31:51.517Z,8.33
2024-02-19T09:34:23.793Z,8.17
2024-02-19T09:36:56.932Z,8.31
2024-02-19T09:39:26.278Z,8.49
2024-02-19T09:41:55.577Z,8.59
2024-02-19T09:44:24.681Z,8.68
2024-02-19T09:46:57.136Z,8.76
2024-02-19T09:49:29.715Z,8.83
2024-02-19T09:52:04.358Z,8.85
2024-02-19T09:54:33.813Z,8.79
2024-02-19T09:57:03.350Z,8.99
2024-02-19T09:59:32.907Z,8.89
2024-02-19T10:02:02.438Z,8.93
2024-02-19T10:04:33.024Z,9.18
2024-02-19T10:07:04.017Z,9.18
2024-02-19T10:09:33.968Z,9.27
2024-02-19T10:12:03.757Z,9.50
2024-02-19T10:14:32.730Z,9.60
2024-02-19T10:17:02.460Z,9.68
2024-02-19T10:19:31.696Z,9.85
2024-02-19T10:22:00.886Z,9.75
2024-02-19T10:24:32.044Z,9.91
2024-02-19T10:27:01.168Z,10.13
2024-02-19T10:29:30.897Z,10.12
2024-02-19T10:31:59.945Z,10.17
2024-02-19T10:34:29.397Z,10.28
2024-02-19T10:37:04.819Z,10.19
2024-02-19T10:39:35.338Z,10.39
2024-02-19T10:42:05.662Z,10.49
2024-02-19T10:44:35.890Z,10.55
2024-02-19T10:47:07.653Z,10.54
2024-02-19T10:49:37.369Z,10.72
2024-02-19T10:52:07.438Z,10.88
2024-02-19T10:55:02.474Z,10.81
2024-02-19T10:57:46.539Z,10.94
2024-02-19T11:00:16.435Z,11.25
2024-02-19T11:02:45.950Z,11.26
2024-02-19T11:05:15.944Z,11.41
2024-02-19T11:07:46.247Z,11.54
2024-02-19T11:10:22.484Z,11.66
2024-02-19T11:12:51.599Z,11.70
2024-02-19T11:15:22.329Z,11.47
2024-02-19T11:17:56.847Z,11.58
2024-02-19T11:20:26.947Z,11.49
2024-02-19T11:23:01.544Z,11.61
2024-02-19T11:25:32.059Z,11.62
2024-02-19T11:28:01.619Z,11.70
2024-02-19T11:30:32.581Z,11.49
2024-02-19T11:33:02.863Z,11.64
2024-02-19T11:35:36.397Z,11.59
2024-02-19T11:38:06.360Z,11.73
2024-02-19T11:40:37.212Z,11.92
2024-02-19T11:43:09.327Z,11.94
2024-02-19T11:45:39.933Z,11.91
2024-02-19T11:48:10.342Z,12.03
2024-02-19T11:50:41.251Z,11.74
2024-02-19T11:53:11.628Z,11.61
2024-02-19T11:58:29.153Z,11.29
2024-02-19T12:00:58.813Z,10.88
2024-02-19T12:03:28.991Z,10.90
2024-02-19T12:06:05.503Z,10.75
2024-02-19T12:08:35.158Z,11.13
2024-02-19T12:11:08.767Z,10.75
2024-02-19T12:13:40.170Z,10.88
2024-02-19T12:16:10.374Z,11.00
2024-02-19T12:18:41.672Z,11.00
2024-02-19T12:21:11.499Z,10.72
2024-02-19T12:23:42.429Z,10.74
2024-02-19T12:26:12.971Z,10.10
2024-02-19T12:28:42.433Z,10.07
2024-02-19T12:31:12.111Z,10.34
2024-02-19T12:33:41.495Z,10.50
2024-02-19T12:36:13.732Z,10.75
2024-02-19T12:38:43.930Z,10.91
2024-02-19T12:41:15.739Z,9.98
2024-02-19T12:43:45.811Z,10.09
2024-02-19T12:46:16.022Z,10.26
2024-02-19T12:48:45.448Z,10.13
2024-02-19T12:51:16.754Z,10.56
2024-02-19T12:53:51.212Z,10.47
2024-02-19T12:56:21.743Z,10.79
2024-02-19T12:58:50.771Z,10.89
2024-02-19T13:01:27.345Z,11.02
2024-02-19T13:04:01.556Z,10.87
2024-02-19T13:06:31.664Z,10.98
2024-02-19T13:09:01.804Z,11.12
2024-02-19T13:11:32.797Z,11.33
2024-02-19T13:14:04.007Z,11.26
2024-02-19T13:16:35.935Z,11.30
2024-02-19T13:19:09.881Z,11.36
2024-02-19T13:21:39.479Z,11.40
2024-02-19T13:24:08.778Z,11.37
2024-02-19T13:26:38.848Z,11.14
2024-02-19T13:29:07.929Z,10.85
2024-02-19T13:31:41.182Z,11.17
2024-02-19T13:34:11.277Z,11.00
2024-02-19T13:36:40.879Z,10.70
2024-02-19T13:39:10.308Z,10.61
2024-02-19T13:41:40.712Z,10.71
2024-02-19T13:44:09.558Z,10.34
2024-02-19T13:46:39.754Z,10.31
2024-02-19T13:49:09.110Z,10.48
2024-02-19T13:51:38.446Z,10.47
2024-02-19T13:54:07.912Z,10.50
2024-02-19T13:56:42.205Z,10.68
2024-02-19T13:59:11.613Z,10.90
2024-02-19T14:01:42.791Z,10.94
2024-02-19T14:04:13.457Z,11.10
2024-02-19T14:06:42.760Z,10.71
2024-02-19T14:09:12.795Z,10.78
2024-02-19T14:11:43.786Z,10.73
2024-02-19T14:14:17.484Z,10.89
2024-02-19T14:16:46.846Z,11.06
2024-02-19T14:19:16.249Z,10.95
2024-02-19T14:21:45.732Z,10.93
2024-02-19T14:24:15.400Z,11.06
2024-02-19T14:26:46.127Z,11.05
2024-02-19T14:29:16.261Z,11.16
2024-02-19T14:31:45.377Z,11.15
2024-02-19T14:34:14.588Z,11.06
2024-02-19T14:36:44.348Z,10.93
2024-02-19T14:41:58.516Z,11.05
2024-02-19T14:44:27.542Z,10.75
2024-02-19T14:47:02.595Z,11.01
2024-02-19T14:49:36.472Z,11.25
2024-02-19T14:52:06.761Z,11.32
2024-02-19T14:54:45.632Z,11.42
2024-02-19T14:57:16.391Z,11.38
2024-02-19T14:59:45.571Z,11.37
2024-02-19T15:02:16.559Z,11.46
2024-02-19T15:04:45.911Z,11.67
2024-02-19T15:07:15.259Z,11.56
2024-02-19T15:09:44.093Z,11.44
2024-02-19T15:12:19.649Z,11.47
2024-02-19T15:14:48.978Z,11.54
2024-02-19T15:17:18.600Z,11.61
2024-02-19T15:19:47.524Z,11.36
2024-02-19T15:22:17.107Z,11.37
2024-02-19T15:24:46.416Z,11.35
2024-02-19T15:27:17.224Z,11.47
2024-02-19T15:29:47.102Z,11.64
2024-02-19T15:32:19.030Z,12.07
2024-02-19T15:34:48.535Z,12.38
2024-02-19T15:37:19.761Z,12.31
2024-02-19T15:39:48.912Z,12.13
2024-02-19T15:42:22.027Z,12.28
2024-02-19T15:44:54.286Z,11.31
2024-02-19T15:47:23.926Z,11.12
2024-02-19T15:49:55.506Z,11.23
2024-02-19T15:52:29.402Z,11.01
2024-02-19T15:54:58.737Z,11.20
2024-02-19T15:57:29.296Z,11.08
2024-02-19T16:00:01.791Z,11.37
2024-02-19T16:02:35.000Z,11.70
2024-02-19T16:05:04.899Z,12.01
2024-02-19T16:07:34.616Z,12.37
2024-02-19T16:10:03.694Z,12.52
2024-02-19T16:12:34.956Z,12.56
2024-02-19T16:15:08.010Z,12.32
2024-02-19T16:17:37.697Z,12.25
2024-02-19T16:20:09.203Z,11.97
2024-02-19T16:22:40.145Z,11.90
2024-02-19T16:25:12.324Z,11.82
2024-02-19T16:27:43.243Z,11.78
2024-02-19T16:30:14.552Z,11.70
2024-02-19T16:32:44.238Z,11.52
2024-02-19T16:35:13.363Z,11.39
2024-02-19T16:37:42.785Z,11.28
2024-02-19T16:40:12.473Z,11.39
2024-02-19T16:42:43.564Z,11.24
2024-02-19T16:45:12.832Z,11.17
2024-02-19T16:47:41.797Z,11.08
2024-02-19T16:50:11.266Z,11.31
2024-02-19T16:52:40.515Z,11.30
2024-02-19T16:55:10.676Z,11.01
2024-02-19T16:57:39.787Z,11.00
2024-02-19T17:00:11.330Z,11.09
2024-02-19T17:02:40.436Z,10.74
2024-02-19T17:05:10.840Z,10.64
2024-02-19T17:07:40.156Z,10.79
2024-02-19T17:10:13.082Z,10.93
2024-02-19T17:12:45.214Z,10.56
2024-02-19T17:15:17.169Z,10.46
2024-02-19T17:17:46.771Z,10.45
2024-02-19T17:20:16.346Z,10.16
2024-02-19T17:22:45.202Z,10.25
2024-02-19T17:25:14.100Z,10.48
2024-02-19T17:27:43.875Z,10.55
2024-02-19T17:30:17.488Z,10.58
2024-02-19T17:32:47.105Z,10.72
2024-02-19T17:35:16.681Z,10.69
2024-02-19T17:37:46.159Z,10.64
2024-02-19T17:40:16.206Z,10.62
2024-02-19T17:42:48.362Z,11.02
2024-02-19T17:45:19.336Z,10.54
2024-02-19T17:47:51.692Z,10.37
2024-02-19T17:50:21.407Z,10.33
2024-02-19T17:52:50.430Z,10.44
2024-02-19T17:55:19.314Z,10.34
2024-02-19T17:57:49.553Z,10.39
2024-02-19T18:00:21.245Z,10.53
2024-02-19T18:02:51.121Z,10.32
2024-02-19T18:05:20.278Z,10.25
2024-02-19T18:07:49.178Z,10.28
2024-02-19T18:10:18.886Z,10.32
2024-02-19T18:12:48.332Z,10.17
2024-02-19T18:15:22.725Z,10.28
2024-02-19T18:17:54.246Z,10.34
2024-02-19T18:20:23.725Z,10.03
2024-02-19T18:22:53.095Z,9.90
2024-02-19T18:25:22.469Z,10.11
2024-02-19T18:27:51.571Z,9.88
2024-02-19T18:30:20.976Z,9.87
2024-02-19T18:32:50.408Z,9.95
2024-02-19T18:35:21.133Z,9.63
2024-02-19T18:37:50.596Z,9.86
2024-02-19T18:40:19.563Z,9.78
2024-02-19T18:42:49.525Z,9.64
2024-02-19T18:45:18.937Z,9.66
2024-02-19T18:47:49.504Z,9.65
2024-02-19T18:50:20.131Z,9.72
2024-02-19T18:52:49.298Z,9.77
2024-02-19T18:55:18.642Z,9.61
2024-02-19T18:57:47.709Z,9.84
2024-02-19T19:00:20.657Z,9.52
2024-02-19T19:02:57.998Z,9.47
2024-02-19T19:05:29.407Z,9.65
2024-02-19T19:08:01.653Z,9.59
2024-02-19T19:10:30.724Z,9.63
2024-02-19T19:13:00.123Z,9.63
2024-02-19T19:15:29.207Z,9.72
2024-02-19T19:17:58.491Z,9.76
2024-02-19T19:20:31.642Z,9.82
2024-02-19T19:23:00.846Z,9.80
2024-02-19T19:25:34.095Z,9.84
2024-02-19T19:28:03.237Z,10.09
2024-02-19T19:30:32.670Z,10.11
2024-02-19T19:33:03.872Z,9.87
2024-02-19T19:35:34.931Z,10.02
2024-02-19T19:38:04.361Z,9.75
2024-02-19T19:40:33.667Z,9.53
2024-02-19T19:43:03.039Z,9.69
2024-02-19T19:45:33.641Z,9.51
2024-02-19T19:48:02.929Z,9.50
2024-02-19T19:50:32.179Z,9.26
2024-02-19T19:53:02.895Z,9.22
2024-02-19T19:55:35.375Z,9.30
2024-02-19T19:58:11.376Z,9.42
2024-02-19T20:00:47.153Z,9.42
2024-02-19T20:03:16.482Z,9.27
2024-02-19T20:05:46.352Z,9.05
2024-02-19T20:08:28.254Z,9.25
2024-02-19T20:10:57.435Z,8.96
2024-02-19T20:13:26.410Z,9.05
2024-02-19T20:15:58.286Z,9.30
2024-02-19T20:18:29.323Z,8.71
2024-02-19T20:20:59.146Z,8.68
2024-02-19T20:23:34.431Z,8.43
2024-02-19T20:26:03.548Z,8.38
2024-02-19T20:28:35.214Z,8.32
2024-02-19T20:31:05.911Z,8.55
2024-02-19T20:33:35.555Z,8.41
2024-02-19T20:36:05.553Z,8.00
2024-02-19T20:38:37.123Z,8.09
2024-02-19T20:41:06.537Z,8.05
2024-02-19T20:43:36.474Z,8.19
2024-02-19T20:46:06.038Z,8.41
2024-02-19T20:48:35.193Z,8.71
2024-02-19T20:51:04.464Z,8.49
2024-02-19T20:53:33.578Z,8.32
2024-02-19T20:56:04.166Z,8.47
2024-02-19T20:58:33.381Z,8.58
2024-02-19T21:01:03.101Z,8.84
2024-02-19T21:03:40.083Z,8.39
2024-02-19T21:06:15.240Z,8.86
2024-02-19T21:08:44.280Z,8.81
2024-02-19T21:11:17.077Z,8.76
2024-02-19T21:13:46.343Z,8.80
2024-02-19T21:16:17.886Z,8.88
2024-02-19T21:18:48.333Z,8.94
2024-02-19T21:21:29.411Z,8.68
2024-02-19T21:24:05.067Z,8.88
2024-02-19T21:26:35.584Z,8.58
2024-02-19T21:29:05.531Z,8.53
2024-02-19T21:31:34.570Z,8.69
2024-02-19T21:34:09.637Z,8.62
2024-02-19T21:36:43.166Z,8.66
2024-02-19T21:39:12.490Z,8.28
2024-02-19T21:41:43.199Z,8.44
2024-02-19T21:44:12.931Z,8.31
2024-02-19T21:46:44.033Z,8.26
2024-02-19T21:49:18.736Z,8.36
2024-02-19T21:51:48.140Z,8.36
2024-02-19T21:54:17.901Z,8.35
2024-02-19T21:56:48.754Z,8.28
2024-02-19T21:59:18.665Z,8.23
2024-02-19T22:01:47.970Z,8.17
2024-02-19T22:04:17.806Z,8.04
2024-02-19T22:06:47.005Z,8.34
2024-02-19T22:09:16.220Z,8.64
2024-02-19T22:11:46.000Z,8.27
2024-02-19T22:14:16.560Z,8.20
2024-02-19T22:16:45.673Z,7.89
2024-02-19T22:19:15.323Z,8.53
2024-02-19T22:21:44.822Z,7.96
2024-02-19T22:24:14.330Z,8.16
2024-02-19T22:26:47.073Z,8.15
2024-02-19T22:29:17.853Z,8.13
2024-02-19T22:31:46.831Z,8.19
2024-02-19T22:34:15.680Z,8.50
2024-02-19T22:36:44.840Z,8.20
2024-02-19T22:39:14.036Z,7.77
2024-02-19T22:41:43.715Z,8.08
2024-02-19T22:44:12.783Z,7.87
2024-02-19T22:46:43.311Z,8.04
2024-02-19T22:49:12.447Z,8.31
2024-02-19T22:51:44.928Z,8.06
2024-02-19T22:54:14.821Z,8.18
2024-02-19T22:56:43.999Z,7.92
2024-02-19T22:59:18.936Z,8.14
2024-02-19T23:01:55.588Z,7.86
2024-02-19T23:04:24.893Z,7.74
2024-02-19T23:06:54.526Z,7.61
2024-02-19T23:09:25.151Z,7.49
2024-02-19T23:11:54.941Z,7.42
2024-02-19T23:14:24.583Z,7.37
2024-02-19T23:16:55.637Z,7.30
2024-02-19T23:19:25.384Z,7.18
2024-02-19T23:21:54.453Z,7.38
2024-02-19T23:24:23.809Z,7.52
2024-02-19T23:26:53.524Z,7.42
2024-02-19T23:29:22.713Z,7.53
2024-02-19T23:31:51.857Z,8.03
2024-02-19T23:34:22.848Z,7.88
2024-02-19T23:36:52.425Z,7.86
2024-02-19T23:39:21.462Z,7.79
2024-02-19T23:41:50.204Z,7.93
2024-02-19T23:44:19.049Z,8.02
2024-02-19T23:46:48.485Z,7.71
2024-02-19T23:49:17.800Z,7.85
2024-02-19T23:51:51.006Z,7.85
2024-02-19T23:54:20.363Z,7.98
2024-02-19T23:56:49.785Z,7.74
2024-02-19T23:59:19.201Z,7.69
